<?xml version="1.0" encoding="UTF-8" standalone="no" ?>
<gpx xmlns="http://www.topografix.com/GPX/1/1" xmlns:xsi="http://www.w3.org/2001/XMLSchema-instance" xsi:schemaLocation="http://www.topografix.com/GPX/1/1 http://www.topografix.com/GPX/1/1/gpx.xsd" version="1.1" creator="VisuGPX - https://www.visugpx.com">
  <metadata>
    <name>Trail Cuvéry-Crêt Beauregard</name>
  </metadata>
  <trk>
    <name><![CDATA[Trail Cuvéry-Crêt Beauregard_1]]></name>
    <trkseg>
      <trkpt lat="46.11155" lon="5.73369">
        <ele>1171.4</ele>
        <time>2022-04-29T14:23:13.000Z</time>
      </trkpt>
      <trkpt lat="46.11161" lon="5.73373">
        <ele>1171.5</ele>
        <time>2022-04-29T14:23:15.000Z</time>
      </trkpt>
      <trkpt lat="46.11169" lon="5.73379">
        <ele>1171.6</ele>
      </trkpt>
      <trkpt lat="46.11174" lon="5.73381">
        <ele>1171.5</ele>
        <time>2022-04-29T14:23:19.000Z</time>
      </trkpt>
      <trkpt lat="46.11182" lon="5.73381">
        <ele>1171.3</ele>
        <time>2022-04-29T14:23:23.000Z</time>
      </trkpt>
      <trkpt lat="46.11192" lon="5.73379">
        <ele>1171.1</ele>
        <time>2022-04-29T14:23:27.000Z</time>
      </trkpt>
      <trkpt lat="46.11201" lon="5.73374">
        <ele>1171.1</ele>
        <time>2022-04-29T14:23:31.000Z</time>
      </trkpt>
      <trkpt lat="46.11212" lon="5.73372">
        <ele>1171.3</ele>
        <time>2022-04-29T14:23:35.000Z</time>
      </trkpt>
      <trkpt lat="46.11222" lon="5.73371">
        <ele>1171.4</ele>
        <time>2022-04-29T14:23:39.000Z</time>
      </trkpt>
      <trkpt lat="46.11232" lon="5.73371">
        <ele>1164.154033</ele>
        <time>2022-04-29T14:23:43.000Z</time>
      </trkpt>
      <trkpt lat="46.11245" lon="5.7337">
        <ele>1171.9</ele>
        <time>2022-04-29T14:23:48.000Z</time>
      </trkpt>
      <trkpt lat="46.11255" lon="5.73371">
        <ele>1172.2</ele>
        <time>2022-04-29T14:23:52.000Z</time>
      </trkpt>
      <trkpt lat="46.11265" lon="5.73373">
        <ele>1172.6</ele>
        <time>2022-04-29T14:23:56.000Z</time>
      </trkpt>
      <trkpt lat="46.11271" lon="5.73373">
        <ele>1172.8</ele>
      </trkpt>
      <trkpt lat="46.11276" lon="5.73374">
        <ele>1172.9</ele>
        <time>2022-04-29T14:24:00.000Z</time>
      </trkpt>
      <trkpt lat="46.11285" lon="5.73378">
        <ele>1173.4</ele>
        <time>2022-04-29T14:24:04.000Z</time>
      </trkpt>
      <trkpt lat="46.11293" lon="5.73383">
        <ele>1165.679555</ele>
        <time>2022-04-29T14:24:08.000Z</time>
      </trkpt>
      <trkpt lat="46.11303" lon="5.73386">
        <ele>1165.92721</ele>
        <time>2022-04-29T14:24:12.000Z</time>
      </trkpt>
      <trkpt lat="46.11312" lon="5.7339">
        <ele>1166.14726</ele>
        <time>2022-04-29T14:24:16.000Z</time>
      </trkpt>
      <trkpt lat="46.1132" lon="5.73392">
        <ele>1166.366615</ele>
        <time>2022-04-29T14:24:20.000Z</time>
      </trkpt>
      <trkpt lat="46.1133" lon="5.73395">
        <ele>1166.609446</ele>
        <time>2022-04-29T14:24:24.000Z</time>
      </trkpt>
      <trkpt lat="46.11339" lon="5.73398">
        <ele>1166.846607</ele>
        <time>2022-04-29T14:24:28.000Z</time>
      </trkpt>
      <trkpt lat="46.11349" lon="5.73402">
        <ele>1167.090748</ele>
        <time>2022-04-29T14:24:32.000Z</time>
      </trkpt>
      <trkpt lat="46.11358" lon="5.73407">
        <ele>1167.33865</ele>
        <time>2022-04-29T14:24:36.000Z</time>
      </trkpt>
      <trkpt lat="46.11367" lon="5.73412">
        <ele>1167.568935</ele>
        <time>2022-04-29T14:24:40.000Z</time>
      </trkpt>
      <trkpt lat="46.11376" lon="5.73418">
        <ele>1167.813081</ele>
        <time>2022-04-29T14:24:44.000Z</time>
      </trkpt>
      <trkpt lat="46.11387" lon="5.73425">
        <ele>1168.107353</ele>
        <time>2022-04-29T14:24:49.000Z</time>
      </trkpt>
      <trkpt lat="46.11396" lon="5.73431">
        <ele>1168.34896</ele>
        <time>2022-04-29T14:24:53.000Z</time>
      </trkpt>
      <trkpt lat="46.11405" lon="5.73436">
        <ele>1168.343443</ele>
        <time>2022-04-29T14:24:57.000Z</time>
      </trkpt>
      <trkpt lat="46.11413" lon="5.73442">
        <ele>1168.13836</ele>
        <time>2022-04-29T14:25:01.000Z</time>
      </trkpt>
      <trkpt lat="46.11422" lon="5.73444">
        <ele>1167.957197</ele>
        <time>2022-04-29T14:25:05.000Z</time>
      </trkpt>
      <trkpt lat="46.11432" lon="5.73446">
        <ele>1167.731316</ele>
        <time>2022-04-29T14:25:09.000Z</time>
      </trkpt>
      <trkpt lat="46.11441" lon="5.73445">
        <ele>1167.538414</ele>
        <time>2022-04-29T14:25:13.000Z</time>
      </trkpt>
      <trkpt lat="46.11451" lon="5.73444">
        <ele>1167.326055</ele>
        <time>2022-04-29T14:25:17.000Z</time>
      </trkpt>
      <trkpt lat="46.11462" lon="5.73447">
        <ele>1167.085258</ele>
        <time>2022-04-29T14:25:21.000Z</time>
      </trkpt>
      <trkpt lat="46.11473" lon="5.73448">
        <ele>1166.846734</ele>
        <time>2022-04-29T14:25:25.000Z</time>
      </trkpt>
      <trkpt lat="46.11483" lon="5.7345">
        <ele>1166.618248</ele>
        <time>2022-04-29T14:25:29.000Z</time>
      </trkpt>
      <trkpt lat="46.11493" lon="5.73453">
        <ele>1166.406072</ele>
        <time>2022-04-29T14:25:33.000Z</time>
      </trkpt>
      <trkpt lat="46.11503" lon="5.73452">
        <ele>1166.190394</ele>
        <time>2022-04-29T14:25:37.000Z</time>
      </trkpt>
      <trkpt lat="46.11511" lon="5.73452">
        <ele>1166.004588</ele>
        <time>2022-04-29T14:25:41.000Z</time>
      </trkpt>
      <trkpt lat="46.1152" lon="5.7345">
        <ele>1165.808091</ele>
        <time>2022-04-29T14:25:45.000Z</time>
      </trkpt>
      <trkpt lat="46.11532" lon="5.73447">
        <ele>1165.551335</ele>
        <time>2022-04-29T14:25:50.000Z</time>
      </trkpt>
      <trkpt lat="46.11541" lon="5.73442">
        <ele>1165.347732</ele>
        <time>2022-04-29T14:25:54.000Z</time>
      </trkpt>
      <trkpt lat="46.11549" lon="5.73435">
        <ele>1165.141599</ele>
        <time>2022-04-29T14:25:58.000Z</time>
      </trkpt>
      <trkpt lat="46.11557" lon="5.73427">
        <ele>1164.928562</ele>
        <time>2022-04-29T14:26:02.000Z</time>
      </trkpt>
      <trkpt lat="46.11567" lon="5.73421">
        <ele>1164.69161</ele>
        <time>2022-04-29T14:26:06.000Z</time>
      </trkpt>
      <trkpt lat="46.11575" lon="5.7342">
        <ele>1164.376226</ele>
        <time>2022-04-29T14:26:10.000Z</time>
      </trkpt>
      <trkpt lat="46.11586" lon="5.73422">
        <ele>1163.664959</ele>
        <time>2022-04-29T14:26:14.000Z</time>
      </trkpt>
      <trkpt lat="46.11597" lon="5.73427">
        <ele>1162.949039</ele>
        <time>2022-04-29T14:26:18.000Z</time>
      </trkpt>
      <trkpt lat="46.11607" lon="5.73431">
        <ele>1162.240468</ele>
        <time>2022-04-29T14:26:22.000Z</time>
      </trkpt>
      <trkpt lat="46.11616" lon="5.73437">
        <ele>1161.637484</ele>
        <time>2022-04-29T14:26:26.000Z</time>
      </trkpt>
      <trkpt lat="46.11624" lon="5.73443">
        <ele>1161.042251</ele>
        <time>2022-04-29T14:26:30.000Z</time>
      </trkpt>
      <trkpt lat="46.11633" lon="5.73448">
        <ele>1160.398476</ele>
        <time>2022-04-29T14:26:34.000Z</time>
      </trkpt>
      <trkpt lat="46.11644" lon="5.73456">
        <ele>1159.631908</ele>
        <time>2022-04-29T14:26:38.000Z</time>
      </trkpt>
      <trkpt lat="46.11655" lon="5.73463">
        <ele>1158.848391</ele>
        <time>2022-04-29T14:26:42.000Z</time>
      </trkpt>
      <trkpt lat="46.11665" lon="5.73472">
        <ele>1158.069146</ele>
        <time>2022-04-29T14:26:46.000Z</time>
      </trkpt>
      <trkpt lat="46.11677" lon="5.73483">
        <ele>1157.173876</ele>
        <time>2022-04-29T14:26:51.000Z</time>
      </trkpt>
      <trkpt lat="46.11685" lon="5.73492">
        <ele>1156.502871</ele>
        <time>2022-04-29T14:26:55.000Z</time>
      </trkpt>
      <trkpt lat="46.11697" lon="5.73496">
        <ele>1155.756881</ele>
        <time>2022-04-29T14:26:59.000Z</time>
      </trkpt>
      <trkpt lat="46.11709" lon="5.73498">
        <ele>1154.957542</ele>
        <time>2022-04-29T14:27:03.000Z</time>
      </trkpt>
      <trkpt lat="46.11717" lon="5.73503">
        <ele>1154.398093</ele>
        <time>2022-04-29T14:27:07.000Z</time>
      </trkpt>
      <trkpt lat="46.11725" lon="5.73509">
        <ele>1153.800645</ele>
        <time>2022-04-29T14:27:11.000Z</time>
      </trkpt>
      <trkpt lat="46.11733" lon="5.73516">
        <ele>1153.185974</ele>
        <time>2022-04-29T14:27:15.000Z</time>
      </trkpt>
      <trkpt lat="46.11742" lon="5.73523">
        <ele>1153.587056</ele>
        <time>2022-04-29T14:27:19.000Z</time>
      </trkpt>
      <trkpt lat="46.11752" lon="5.73529">
        <ele>1154.457855</ele>
        <time>2022-04-29T14:27:23.000Z</time>
      </trkpt>
      <trkpt lat="46.11761" lon="5.73535">
        <ele>1155.260192</ele>
        <time>2022-04-29T14:27:27.000Z</time>
      </trkpt>
      <trkpt lat="46.11769" lon="5.7354">
        <ele>1155.970337</ele>
        <time>2022-04-29T14:27:31.000Z</time>
      </trkpt>
      <trkpt lat="46.11778" lon="5.73543">
        <ele>1156.762113</ele>
        <time>2022-04-29T14:27:35.000Z</time>
      </trkpt>
      <trkpt lat="46.11787" lon="5.73543">
        <ele>1157.443353</ele>
        <time>2022-04-29T14:27:39.000Z</time>
      </trkpt>
      <trkpt lat="46.11794" lon="5.73541">
        <ele>1158.069019</ele>
        <time>2022-04-29T14:27:43.000Z</time>
      </trkpt>
      <trkpt lat="46.11802" lon="5.73538">
        <ele>1158.712175</ele>
        <time>2022-04-29T14:27:47.000Z</time>
      </trkpt>
      <trkpt lat="46.11809" lon="5.73534">
        <ele>1159.344318</ele>
        <time>2022-04-29T14:27:51.000Z</time>
      </trkpt>
      <trkpt lat="46.11817" lon="5.73528">
        <ele>1160.035278</ele>
        <time>2022-04-29T14:27:56.000Z</time>
      </trkpt>
      <trkpt lat="46.11822" lon="5.73524">
        <ele>1160.523357</ele>
        <time>2022-04-29T14:28:00.000Z</time>
      </trkpt>
      <trkpt lat="46.11828" lon="5.73521">
        <ele>1161.005333</ele>
        <time>2022-04-29T14:28:04.000Z</time>
      </trkpt>
      <trkpt lat="46.11834" lon="5.73516">
        <ele>1161.549477</ele>
        <time>2022-04-29T14:28:08.000Z</time>
      </trkpt>
      <trkpt lat="46.1184" lon="5.73513">
        <ele>1162.088388</ele>
        <time>2022-04-29T14:28:12.000Z</time>
      </trkpt>
      <trkpt lat="46.11847" lon="5.73511">
        <ele>1162.68162</ele>
        <time>2022-04-29T14:28:16.000Z</time>
      </trkpt>
      <trkpt lat="46.11855" lon="5.7351">
        <ele>1163.304139</ele>
        <time>2022-04-29T14:28:20.000Z</time>
      </trkpt>
      <trkpt lat="46.11861" lon="5.73509">
        <ele>1163.840226</ele>
        <time>2022-04-29T14:28:24.000Z</time>
      </trkpt>
      <trkpt lat="46.11868" lon="5.73508">
        <ele>1164.368703</ele>
        <time>2022-04-29T14:28:28.000Z</time>
      </trkpt>
      <trkpt lat="46.11875" lon="5.73507">
        <ele>1164.932185</ele>
        <time>2022-04-29T14:28:32.000Z</time>
      </trkpt>
      <trkpt lat="46.11882" lon="5.73507">
        <ele>1165.505147</ele>
        <time>2022-04-29T14:28:36.000Z</time>
      </trkpt>
      <trkpt lat="46.1189" lon="5.73505">
        <ele>1166.158914</ele>
        <time>2022-04-29T14:28:40.000Z</time>
      </trkpt>
      <trkpt lat="46.11898" lon="5.73504">
        <ele>1166.798027</ele>
        <time>2022-04-29T14:28:44.000Z</time>
      </trkpt>
      <trkpt lat="46.11905" lon="5.73503">
        <ele>1167.36347</ele>
        <time>2022-04-29T14:28:48.000Z</time>
      </trkpt>
      <trkpt lat="46.11912" lon="5.73502">
        <ele>1168.117155</ele>
        <time>2022-04-29T14:28:52.000Z</time>
      </trkpt>
      <trkpt lat="46.11919" lon="5.73501">
        <ele>1169.056469</ele>
        <time>2022-04-29T14:28:57.000Z</time>
      </trkpt>
      <trkpt lat="46.11927" lon="5.73498">
        <ele>1170.046872</ele>
        <time>2022-04-29T14:29:01.000Z</time>
      </trkpt>
      <trkpt lat="46.11933" lon="5.73498">
        <ele>1170.828731</ele>
        <time>2022-04-29T14:29:05.000Z</time>
      </trkpt>
      <trkpt lat="46.1194" lon="5.73497">
        <ele>1171.718793</ele>
        <time>2022-04-29T14:29:09.000Z</time>
      </trkpt>
      <trkpt lat="46.11947" lon="5.73493">
        <ele>1172.606584</ele>
        <time>2022-04-29T14:29:13.000Z</time>
      </trkpt>
      <trkpt lat="46.11954" lon="5.73492">
        <ele>1173.390733</ele>
        <time>2022-04-29T14:29:17.000Z</time>
      </trkpt>
      <trkpt lat="46.11961" lon="5.73493">
        <ele>1174.234288</ele>
        <time>2022-04-29T14:29:21.000Z</time>
      </trkpt>
      <trkpt lat="46.11967" lon="5.73494">
        <ele>1175.072468</ele>
        <time>2022-04-29T14:29:25.000Z</time>
      </trkpt>
      <trkpt lat="46.11974" lon="5.73493">
        <ele>1175.818999</ele>
        <time>2022-04-29T14:29:29.000Z</time>
      </trkpt>
      <trkpt lat="46.1198" lon="5.73492">
        <ele>1176.54665</ele>
        <time>2022-04-29T14:29:33.000Z</time>
      </trkpt>
      <trkpt lat="46.11986" lon="5.73492">
        <ele>1177.266959</ele>
        <time>2022-04-29T14:29:37.000Z</time>
      </trkpt>
      <trkpt lat="46.11992" lon="5.73493">
        <ele>1178.026298</ele>
        <time>2022-04-29T14:29:41.000Z</time>
      </trkpt>
      <trkpt lat="46.11998" lon="5.73492">
        <ele>1178.717387</ele>
        <time>2022-04-29T14:29:45.000Z</time>
      </trkpt>
      <trkpt lat="46.12003" lon="5.73491">
        <ele>1179.349834</ele>
        <time>2022-04-29T14:29:49.000Z</time>
      </trkpt>
      <trkpt lat="46.12009" lon="5.73493">
        <ele>1180.058964</ele>
        <time>2022-04-29T14:29:53.000Z</time>
      </trkpt>
      <trkpt lat="46.12015" lon="5.73495">
        <ele>1180.828772</ele>
        <time>2022-04-29T14:29:58.000Z</time>
      </trkpt>
      <trkpt lat="46.1202" lon="5.73498">
        <ele>1181.493369</ele>
        <time>2022-04-29T14:30:02.000Z</time>
      </trkpt>
      <trkpt lat="46.12025" lon="5.73496">
        <ele>1182.155615</ele>
        <time>2022-04-29T14:30:06.000Z</time>
      </trkpt>
      <trkpt lat="46.12032" lon="5.73496">
        <ele>1182.952551</ele>
        <time>2022-04-29T14:30:10.000Z</time>
      </trkpt>
      <trkpt lat="46.12039" lon="5.73495">
        <ele>1183.838489</ele>
        <time>2022-04-29T14:30:14.000Z</time>
      </trkpt>
      <trkpt lat="46.12047" lon="5.73494">
        <ele>1184.758482</ele>
        <time>2022-04-29T14:30:18.000Z</time>
      </trkpt>
      <trkpt lat="46.12052" lon="5.73491">
        <ele>1185.490247</ele>
        <time>2022-04-29T14:30:22.000Z</time>
      </trkpt>
      <trkpt lat="46.12059" lon="5.7349">
        <ele>1186.336645</ele>
        <time>2022-04-29T14:30:26.000Z</time>
      </trkpt>
      <trkpt lat="46.12066" lon="5.7349">
        <ele>1187.131947</ele>
        <time>2022-04-29T14:30:30.000Z</time>
      </trkpt>
      <trkpt lat="46.12075" lon="5.73492">
        <ele>1188.188986</ele>
        <time>2022-04-29T14:30:34.000Z</time>
      </trkpt>
      <trkpt lat="46.12082" lon="5.73494">
        <ele>1189.070504</ele>
        <time>2022-04-29T14:30:38.000Z</time>
      </trkpt>
      <trkpt lat="46.12089" lon="5.73495">
        <ele>1189.520336</ele>
        <time>2022-04-29T14:30:42.000Z</time>
      </trkpt>
      <trkpt lat="46.12096" lon="5.73494">
        <ele>1189.955447</ele>
        <time>2022-04-29T14:30:46.000Z</time>
      </trkpt>
      <trkpt lat="46.12103" lon="5.7349">
        <ele>1190.411117</ele>
        <time>2022-04-29T14:30:50.000Z</time>
      </trkpt>
      <trkpt lat="46.1211" lon="5.73493">
        <ele>1190.927213</ele>
        <time>2022-04-29T14:30:54.000Z</time>
      </trkpt>
      <trkpt lat="46.1212" lon="5.73499">
        <ele>1191.566297</ele>
        <time>2022-04-29T14:30:59.000Z</time>
      </trkpt>
      <trkpt lat="46.12129" lon="5.73503">
        <ele>1192.139828</ele>
        <time>2022-04-29T14:31:03.000Z</time>
      </trkpt>
      <trkpt lat="46.12135" lon="5.73504">
        <ele>1192.538739</ele>
        <time>2022-04-29T14:31:07.000Z</time>
      </trkpt>
      <trkpt lat="46.12143" lon="5.73508">
        <ele>1193.066943</ele>
        <time>2022-04-29T14:31:11.000Z</time>
      </trkpt>
      <trkpt lat="46.12152" lon="5.7351">
        <ele>1193.604053</ele>
        <time>2022-04-29T14:31:15.000Z</time>
      </trkpt>
      <trkpt lat="46.12159" lon="5.73512">
        <ele>1194.047231</ele>
        <time>2022-04-29T14:31:19.000Z</time>
      </trkpt>
      <trkpt lat="46.12165" lon="5.73513">
        <ele>1194.413263</ele>
        <time>2022-04-29T14:31:23.000Z</time>
      </trkpt>
      <trkpt lat="46.1217" lon="5.73513">
        <ele>1194.727042</ele>
        <time>2022-04-29T14:31:27.000Z</time>
      </trkpt>
      <trkpt lat="46.12178" lon="5.73514">
        <ele>1195.23093</ele>
        <time>2022-04-29T14:31:31.000Z</time>
      </trkpt>
      <trkpt lat="46.12185" lon="5.73515">
        <ele>1195.686918</ele>
        <time>2022-04-29T14:31:35.000Z</time>
      </trkpt>
      <trkpt lat="46.12195" lon="5.73517">
        <ele>1196.309653</ele>
        <time>2022-04-29T14:31:39.000Z</time>
      </trkpt>
      <trkpt lat="46.12205" lon="5.73521">
        <ele>1196.944449</ele>
        <time>2022-04-29T14:31:43.000Z</time>
      </trkpt>
      <trkpt lat="46.12215" lon="5.73527">
        <ele>1197.610677</ele>
        <time>2022-04-29T14:31:47.000Z</time>
      </trkpt>
      <trkpt lat="46.12225" lon="5.73534">
        <ele>1198.250845</ele>
        <time>2022-04-29T14:31:51.000Z</time>
      </trkpt>
      <trkpt lat="46.12233" lon="5.73538">
        <ele>1198.81219</ele>
        <time>2022-04-29T14:31:55.000Z</time>
      </trkpt>
      <trkpt lat="46.12245" lon="5.73543">
        <ele>1199.581769</ele>
        <time>2022-04-29T14:32:00.000Z</time>
      </trkpt>
      <trkpt lat="46.12254" lon="5.73544">
        <ele>1200.124609</ele>
        <time>2022-04-29T14:32:04.000Z</time>
      </trkpt>
      <trkpt lat="46.12263" lon="5.73544">
        <ele>1199.922091</ele>
        <time>2022-04-29T14:32:08.000Z</time>
      </trkpt>
      <trkpt lat="46.1227" lon="5.73545">
        <ele>1199.740222</ele>
        <time>2022-04-29T14:32:12.000Z</time>
      </trkpt>
      <trkpt lat="46.12278" lon="5.73547">
        <ele>1199.534435</ele>
        <time>2022-04-29T14:32:16.000Z</time>
      </trkpt>
      <trkpt lat="46.12288" lon="5.73549">
        <ele>1199.29261</ele>
        <time>2022-04-29T14:32:20.000Z</time>
      </trkpt>
      <trkpt lat="46.12296" lon="5.73551">
        <ele>1199.08302</ele>
        <time>2022-04-29T14:32:24.000Z</time>
      </trkpt>
      <trkpt lat="46.12303" lon="5.73552">
        <ele>1198.903271</ele>
        <time>2022-04-29T14:32:28.000Z</time>
      </trkpt>
      <trkpt lat="46.12313" lon="5.73554">
        <ele>1198.66879</ele>
        <time>2022-04-29T14:32:32.000Z</time>
      </trkpt>
      <trkpt lat="46.12324" lon="5.73558">
        <ele>1198.376842</ele>
        <time>2022-04-29T14:32:36.000Z</time>
      </trkpt>
      <trkpt lat="46.12334" lon="5.73564">
        <ele>1198.121738</ele>
        <time>2022-04-29T14:32:40.000Z</time>
      </trkpt>
      <trkpt lat="46.12347" lon="5.7357">
        <ele>1197.788271</ele>
        <time>2022-04-29T14:32:44.000Z</time>
      </trkpt>
      <trkpt lat="46.12354" lon="5.73571">
        <ele>1197.61153</ele>
        <time>2022-04-29T14:32:48.000Z</time>
      </trkpt>
      <trkpt lat="46.12369" lon="5.73571">
        <ele>1197.245007</ele>
        <time>2022-04-29T14:32:52.000Z</time>
      </trkpt>
      <trkpt lat="46.12379" lon="5.7357">
        <ele>1197.004205</ele>
        <time>2022-04-29T14:32:56.000Z</time>
      </trkpt>
      <trkpt lat="46.12387" lon="5.73568">
        <ele>1196.793512</ele>
        <time>2022-04-29T14:33:36.000Z</time>
      </trkpt>
      <trkpt lat="46.12398" lon="5.73569">
        <ele>1196.529858</ele>
        <time>2022-04-29T14:33:41.000Z</time>
      </trkpt>
      <trkpt lat="46.12406" lon="5.73566">
        <ele>1196.309716</ele>
        <time>2022-04-29T14:33:45.000Z</time>
      </trkpt>
      <trkpt lat="46.12416" lon="5.73564">
        <ele>1196.075529</ele>
        <time>2022-04-29T14:33:49.000Z</time>
      </trkpt>
      <trkpt lat="46.12425" lon="5.73564">
        <ele>1195.848627</ele>
        <time>2022-04-29T14:33:53.000Z</time>
      </trkpt>
      <trkpt lat="46.12433" lon="5.73564">
        <ele>1195.65156</ele>
        <time>2022-04-29T14:33:57.000Z</time>
      </trkpt>
      <trkpt lat="46.12441" lon="5.73567">
        <ele>1195.416268</ele>
        <time>2022-04-29T14:34:01.000Z</time>
      </trkpt>
      <trkpt lat="46.12449" lon="5.73568">
        <ele>1195.175393</ele>
        <time>2022-04-29T14:34:05.000Z</time>
      </trkpt>
      <trkpt lat="46.12458" lon="5.73569">
        <ele>1194.89938</ele>
        <time>2022-04-29T14:34:09.000Z</time>
      </trkpt>
      <trkpt lat="46.12467" lon="5.73572">
        <ele>1194.647695</ele>
        <time>2022-04-29T14:34:13.000Z</time>
      </trkpt>
      <trkpt lat="46.12475" lon="5.73574">
        <ele>1194.405031</ele>
        <time>2022-04-29T14:34:17.000Z</time>
      </trkpt>
      <trkpt lat="46.12487" lon="5.73577">
        <ele>1194.060089</ele>
        <time>2022-04-29T14:34:21.000Z</time>
      </trkpt>
      <trkpt lat="46.125" lon="5.73578">
        <ele>1193.684221</ele>
        <time>2022-04-29T14:34:25.000Z</time>
      </trkpt>
      <trkpt lat="46.1251" lon="5.73577">
        <ele>1193.385702</ele>
        <time>2022-04-29T14:34:29.000Z</time>
      </trkpt>
      <trkpt lat="46.12521" lon="5.73578">
        <ele>1193.082132</ele>
        <time>2022-04-29T14:34:33.000Z</time>
      </trkpt>
      <trkpt lat="46.12531" lon="5.7358">
        <ele>1192.77799</ele>
        <time>2022-04-29T14:34:37.000Z</time>
      </trkpt>
      <trkpt lat="46.12548" lon="5.73585">
        <ele>1192.271825</ele>
        <time>2022-04-29T14:34:42.000Z</time>
      </trkpt>
      <trkpt lat="46.1256" lon="5.7359">
        <ele>1191.918027</ele>
        <time>2022-04-29T14:34:46.000Z</time>
      </trkpt>
      <trkpt lat="46.12571" lon="5.73594">
        <ele>1191.595972</ele>
        <time>2022-04-29T14:34:50.000Z</time>
      </trkpt>
      <trkpt lat="46.12583" lon="5.73597">
        <ele>1191.243153</ele>
        <time>2022-04-29T14:34:54.000Z</time>
      </trkpt>
      <trkpt lat="46.12593" lon="5.736">
        <ele>1190.927689</ele>
        <time>2022-04-29T14:34:58.000Z</time>
      </trkpt>
      <trkpt lat="46.12604" lon="5.73603">
        <ele>1190.617159</ele>
        <time>2022-04-29T14:35:02.000Z</time>
      </trkpt>
      <trkpt lat="46.12613" lon="5.73608">
        <ele>1190.428107</ele>
        <time>2022-04-29T14:35:06.000Z</time>
      </trkpt>
      <trkpt lat="46.12623" lon="5.73613">
        <ele>1190.272404</ele>
        <time>2022-04-29T14:35:10.000Z</time>
      </trkpt>
      <trkpt lat="46.12633" lon="5.73616">
        <ele>1190.118615</ele>
        <time>2022-04-29T14:35:14.000Z</time>
      </trkpt>
      <trkpt lat="46.12643" lon="5.7362">
        <ele>1189.967074</ele>
        <time>2022-04-29T14:35:18.000Z</time>
      </trkpt>
      <trkpt lat="46.12654" lon="5.73622">
        <ele>1189.800479</ele>
        <time>2022-04-29T14:35:22.000Z</time>
      </trkpt>
      <trkpt lat="46.12663" lon="5.73624">
        <ele>1189.654385</ele>
        <time>2022-04-29T14:35:26.000Z</time>
      </trkpt>
      <trkpt lat="46.12673" lon="5.73627">
        <ele>1189.513291</ele>
        <time>2022-04-29T14:35:30.000Z</time>
      </trkpt>
      <trkpt lat="46.12682" lon="5.73628">
        <ele>1189.366645</ele>
        <time>2022-04-29T14:35:34.000Z</time>
      </trkpt>
      <trkpt lat="46.12692" lon="5.73632">
        <ele>1189.211107</ele>
        <time>2022-04-29T14:35:38.000Z</time>
      </trkpt>
      <trkpt lat="46.12704" lon="5.73639">
        <ele>1189.026696</ele>
        <time>2022-04-29T14:35:43.000Z</time>
      </trkpt>
      <trkpt lat="46.12718" lon="5.73654">
        <ele>1188.754495</ele>
        <time>2022-04-29T14:35:47.000Z</time>
      </trkpt>
      <trkpt lat="46.12728" lon="5.73666">
        <ele>1188.560661</ele>
        <time>2022-04-29T14:35:51.000Z</time>
      </trkpt>
      <trkpt lat="46.12738" lon="5.73677">
        <ele>1188.372765</ele>
        <time>2022-04-29T14:35:55.000Z</time>
      </trkpt>
      <trkpt lat="46.12747" lon="5.73688">
        <ele>1188.203027</ele>
        <time>2022-04-29T14:37:13.000Z</time>
      </trkpt>
      <trkpt lat="46.12754" lon="5.73694">
        <ele>1188.081207</ele>
        <time>2022-04-29T14:37:17.000Z</time>
      </trkpt>
      <trkpt lat="46.12762" lon="5.73702">
        <ele>1187.929668</ele>
        <time>2022-04-29T14:37:21.000Z</time>
      </trkpt>
      <trkpt lat="46.1277" lon="5.7371">
        <ele>1187.834453</ele>
        <time>2022-04-29T14:37:25.000Z</time>
      </trkpt>
      <trkpt lat="46.12779" lon="5.73718">
        <ele>1187.805746</ele>
        <time>2022-04-29T14:37:29.000Z</time>
      </trkpt>
      <trkpt lat="46.12788" lon="5.73724">
        <ele>1187.777662</ele>
        <time>2022-04-29T14:37:33.000Z</time>
      </trkpt>
      <trkpt lat="46.12797" lon="5.73731">
        <ele>1187.749584</ele>
        <time>2022-04-29T14:37:37.000Z</time>
      </trkpt>
      <trkpt lat="46.12806" lon="5.73739">
        <ele>1187.722791</ele>
        <time>2022-04-29T14:37:41.000Z</time>
      </trkpt>
      <trkpt lat="46.12814" lon="5.73745">
        <ele>1187.696972</ele>
        <time>2022-04-29T14:37:45.000Z</time>
      </trkpt>
      <trkpt lat="46.12822" lon="5.73752">
        <ele>1187.672084</ele>
        <time>2022-04-29T14:37:49.000Z</time>
      </trkpt>
      <trkpt lat="46.12828" lon="5.73772">
        <ele>1187.627987</ele>
        <time>2022-04-29T14:37:53.000Z</time>
      </trkpt>
      <trkpt lat="46.1284" lon="5.73774">
        <ele>1187.594326</ele>
        <time>2022-04-29T14:37:58.000Z</time>
      </trkpt>
      <trkpt lat="46.1285" lon="5.73777">
        <ele>1187.566365</ele>
        <time>2022-04-29T14:38:02.000Z</time>
      </trkpt>
      <trkpt lat="46.1286" lon="5.73779">
        <ele>1187.538917</ele>
        <time>2022-04-29T14:40:57.000Z</time>
      </trkpt>
      <trkpt lat="46.12869" lon="5.73783">
        <ele>1187.512648</ele>
        <time>2022-04-29T14:41:01.000Z</time>
      </trkpt>
      <trkpt lat="46.12878" lon="5.73784">
        <ele>1187.489772</ele>
        <time>2022-04-29T14:41:05.000Z</time>
      </trkpt>
      <trkpt lat="46.12886" lon="5.73783">
        <ele>1187.466356</ele>
        <time>2022-04-29T14:41:09.000Z</time>
      </trkpt>
      <trkpt lat="46.12896" lon="5.73783">
        <ele>1187.440846</ele>
        <time>2022-04-29T14:41:13.000Z</time>
      </trkpt>
      <trkpt lat="46.12904" lon="5.73779">
        <ele>1187.417017</ele>
        <time>2022-04-29T14:41:17.000Z</time>
      </trkpt>
      <trkpt lat="46.12908" lon="5.73775">
        <ele>1187.403286</ele>
        <time>2022-04-29T14:41:20.000Z</time>
      </trkpt>
      <trkpt lat="46.12908" lon="5.73754">
        <ele>1197.8</ele>
      </trkpt>
      <trkpt lat="46.12902" lon="5.7372">
        <ele>1197</ele>
      </trkpt>
      <trkpt lat="46.12895" lon="5.73702">
        <ele>1196.8</ele>
      </trkpt>
      <trkpt lat="46.12893" lon="5.73679">
        <ele>1197.4</ele>
      </trkpt>
      <trkpt lat="46.12887" lon="5.73655">
        <ele>1199.1</ele>
      </trkpt>
      <trkpt lat="46.1288" lon="5.73645">
        <ele>1199.9</ele>
      </trkpt>
      <trkpt lat="46.12869" lon="5.73638">
        <ele>1201.1</ele>
      </trkpt>
      <trkpt lat="46.12845" lon="5.73631">
        <ele>1204.5</ele>
      </trkpt>
      <trkpt lat="46.12826" lon="5.7362">
        <ele>1207.3</ele>
      </trkpt>
      <trkpt lat="46.12803" lon="5.73609">
        <ele>1210</ele>
      </trkpt>
      <trkpt lat="46.12778" lon="5.73574">
        <ele>1209.6</ele>
      </trkpt>
      <trkpt lat="46.12765" lon="5.73557">
        <ele>1209.3</ele>
      </trkpt>
      <trkpt lat="46.12751" lon="5.73544">
        <ele>1211</ele>
      </trkpt>
      <trkpt lat="46.12704" lon="5.73511">
        <ele>1209.7</ele>
      </trkpt>
      <trkpt lat="46.12693" lon="5.73499">
        <ele>1210.1</ele>
      </trkpt>
      <trkpt lat="46.12687" lon="5.73473">
        <ele>1207.9</ele>
      </trkpt>
      <trkpt lat="46.1269" lon="5.73451">
        <ele>1207.1</ele>
      </trkpt>
      <trkpt lat="46.127" lon="5.73412">
        <ele>1207.3</ele>
      </trkpt>
      <trkpt lat="46.12701" lon="5.73396">
        <ele>1208.5</ele>
      </trkpt>
      <trkpt lat="46.12697" lon="5.73367">
        <ele>1210.6</ele>
      </trkpt>
      <trkpt lat="46.1272" lon="5.73333">
        <ele>1213.8</ele>
      </trkpt>
      <trkpt lat="46.12736" lon="5.73284">
        <ele>1217.3</ele>
      </trkpt>
      <trkpt lat="46.12762" lon="5.7323">
        <ele>1222.1</ele>
      </trkpt>
      <trkpt lat="46.1277" lon="5.73215">
        <ele>1222.6</ele>
      </trkpt>
      <trkpt lat="46.12778" lon="5.732">
        <ele>1223.8</ele>
      </trkpt>
      <trkpt lat="46.12783" lon="5.73173">
        <ele>1226.2</ele>
      </trkpt>
      <trkpt lat="46.12788" lon="5.73159">
        <ele>1228.2</ele>
      </trkpt>
      <trkpt lat="46.12797" lon="5.73145">
        <ele>1230.5</ele>
      </trkpt>
      <trkpt lat="46.12808" lon="5.73132">
        <ele>1232.7</ele>
      </trkpt>
      <trkpt lat="46.12818" lon="5.73125">
        <ele>1233.9</ele>
      </trkpt>
      <trkpt lat="46.12828" lon="5.73126">
        <ele>1234.6</ele>
      </trkpt>
      <trkpt lat="46.12835" lon="5.7313">
        <ele>1235.4</ele>
      </trkpt>
      <trkpt lat="46.12843" lon="5.73138">
        <ele>1236.3</ele>
      </trkpt>
      <trkpt lat="46.12849" lon="5.73152">
        <ele>1238.4</ele>
      </trkpt>
      <trkpt lat="46.12849" lon="5.73166">
        <ele>1240.4</ele>
      </trkpt>
      <trkpt lat="46.12848" lon="5.73184">
        <ele>1241.9</ele>
      </trkpt>
      <trkpt lat="46.12852" lon="5.73201">
        <ele>1243.2</ele>
      </trkpt>
      <trkpt lat="46.12861" lon="5.73218">
        <ele>1246.5</ele>
      </trkpt>
      <trkpt lat="46.12876" lon="5.73246">
        <ele>1245</ele>
      </trkpt>
      <trkpt lat="46.12852" lon="5.73203">
        <ele>1243.1</ele>
      </trkpt>
      <trkpt lat="46.12848" lon="5.73184">
        <ele>1241.8</ele>
      </trkpt>
      <trkpt lat="46.12848" lon="5.73152">
        <ele>1238.4</ele>
      </trkpt>
      <trkpt lat="46.12842" lon="5.73138">
        <ele>1236.3</ele>
      </trkpt>
      <trkpt lat="46.12835" lon="5.7313">
        <ele>1235.5</ele>
      </trkpt>
      <trkpt lat="46.12828" lon="5.73127">
        <ele>1234.7</ele>
      </trkpt>
      <trkpt lat="46.12819" lon="5.73126">
        <ele>1234</ele>
      </trkpt>
      <trkpt lat="46.12808" lon="5.73134">
        <ele>1232.6</ele>
      </trkpt>
      <trkpt lat="46.12797" lon="5.73147">
        <ele>1230.5</ele>
      </trkpt>
      <trkpt lat="46.12789" lon="5.73159">
        <ele>1228.5</ele>
      </trkpt>
      <trkpt lat="46.12784" lon="5.73173">
        <ele>1226.4</ele>
      </trkpt>
      <trkpt lat="46.12779" lon="5.73199">
        <ele>1224</ele>
      </trkpt>
      <trkpt lat="46.12768" lon="5.7322">
        <ele>1222.4</ele>
      </trkpt>
      <trkpt lat="46.12761" lon="5.73227">
        <ele>1221.9</ele>
      </trkpt>
      <trkpt lat="46.1275" lon="5.73226">
        <ele>1221.1</ele>
      </trkpt>
      <trkpt lat="46.12726" lon="5.7321">
        <ele>1218.4</ele>
      </trkpt>
      <trkpt lat="46.12715" lon="5.732">
        <ele>1216.3</ele>
      </trkpt>
      <trkpt lat="46.127" lon="5.73175">
        <ele>1213.8</ele>
      </trkpt>
      <trkpt lat="46.12686" lon="5.7313">
        <ele>1213.1</ele>
      </trkpt>
      <trkpt lat="46.12683" lon="5.73107">
        <ele>1212.8</ele>
      </trkpt>
      <trkpt lat="46.12685" lon="5.73082">
        <ele>1213</ele>
      </trkpt>
      <trkpt lat="46.12693" lon="5.73053">
        <ele>1213.7</ele>
      </trkpt>
      <trkpt lat="46.12701" lon="5.73031">
        <ele>1213.8</ele>
      </trkpt>
      <trkpt lat="46.12711" lon="5.73006">
        <ele>1214.8</ele>
      </trkpt>
      <trkpt lat="46.12722" lon="5.72985">
        <ele>1215.4</ele>
      </trkpt>
      <trkpt lat="46.12731" lon="5.72971">
        <ele>1215.5</ele>
      </trkpt>
      <trkpt lat="46.12743" lon="5.72963">
        <ele>1215.8</ele>
      </trkpt>
      <trkpt lat="46.12762" lon="5.72956">
        <ele>1216.7</ele>
      </trkpt>
      <trkpt lat="46.12798" lon="5.72949">
        <ele>1218.2</ele>
      </trkpt>
      <trkpt lat="46.1281" lon="5.72944">
        <ele>1217.8</ele>
      </trkpt>
      <trkpt lat="46.12824" lon="5.72934">
        <ele>1216.3</ele>
      </trkpt>
      <trkpt lat="46.12838" lon="5.72924">
        <ele>1215.1</ele>
      </trkpt>
      <trkpt lat="46.1285" lon="5.7291">
        <ele>1214.1</ele>
      </trkpt>
      <trkpt lat="46.1286" lon="5.72894">
        <ele>1211.8</ele>
      </trkpt>
      <trkpt lat="46.12874" lon="5.72855">
        <ele>1208.3</ele>
      </trkpt>
      <trkpt lat="46.12883" lon="5.72829">
        <ele>1205.5</ele>
      </trkpt>
      <trkpt lat="46.12892" lon="5.72805">
        <ele>1203.3</ele>
      </trkpt>
      <trkpt lat="46.129" lon="5.72786">
        <ele>1201</ele>
      </trkpt>
      <trkpt lat="46.12912" lon="5.72762">
        <ele>1198.5</ele>
      </trkpt>
      <trkpt lat="46.12922" lon="5.72748">
        <ele>1197.2</ele>
      </trkpt>
      <trkpt lat="46.12931" lon="5.72732">
        <ele>1196</ele>
      </trkpt>
      <trkpt lat="46.12935" lon="5.72719">
        <ele>1194.5</ele>
      </trkpt>
      <trkpt lat="46.12935" lon="5.72704">
        <ele>1192.4</ele>
      </trkpt>
      <trkpt lat="46.12934" lon="5.72695">
        <ele>1190.9</ele>
      </trkpt>
      <trkpt lat="46.1293" lon="5.72684">
        <ele>1188.7</ele>
      </trkpt>
      <trkpt lat="46.12922" lon="5.72677">
        <ele>1187</ele>
      </trkpt>
      <trkpt lat="46.12914" lon="5.72673">
        <ele>1185.6</ele>
      </trkpt>
      <trkpt lat="46.12905" lon="5.72669">
        <ele>1184.1</ele>
      </trkpt>
      <trkpt lat="46.12894" lon="5.72664">
        <ele>1182.2</ele>
      </trkpt>
      <trkpt lat="46.12884" lon="5.72658">
        <ele>1180.7</ele>
      </trkpt>
      <trkpt lat="46.1288" lon="5.7265">
        <ele>1179.4</ele>
      </trkpt>
      <trkpt lat="46.12877" lon="5.7264">
        <ele>1177.9</ele>
      </trkpt>
      <trkpt lat="46.12874" lon="5.72615">
        <ele>1175.3</ele>
      </trkpt>
      <trkpt lat="46.12907" lon="5.72589">
        <ele>1173.7</ele>
      </trkpt>
      <trkpt lat="46.12943" lon="5.72559">
        <ele>1171.3</ele>
      </trkpt>
      <trkpt lat="46.12997" lon="5.7253">
        <ele>1170.3</ele>
      </trkpt>
      <trkpt lat="46.13077" lon="5.72476">
        <ele>1167.1</ele>
      </trkpt>
      <trkpt lat="46.13106" lon="5.72468">
        <ele>1168</ele>
      </trkpt>
      <trkpt lat="46.13143" lon="5.72477">
        <ele>1168.5</ele>
      </trkpt>
      <trkpt lat="46.13194" lon="5.72483">
        <ele>1168.4</ele>
      </trkpt>
      <trkpt lat="46.13251" lon="5.72478">
        <ele>1165.4</ele>
      </trkpt>
      <trkpt lat="46.13314" lon="5.72456">
        <ele>1163.3</ele>
      </trkpt>
      <trkpt lat="46.13387" lon="5.72437">
        <ele>1157.3</ele>
      </trkpt>
      <trkpt lat="46.13412" lon="5.72425">
        <ele>1155</ele>
      </trkpt>
      <trkpt lat="46.13437" lon="5.72408">
        <ele>1154.7</ele>
      </trkpt>
      <trkpt lat="46.13509" lon="5.72345">
        <ele>1150</ele>
      </trkpt>
      <trkpt lat="46.13565" lon="5.72292">
        <ele>1144.7</ele>
      </trkpt>
      <trkpt lat="46.13532" lon="5.72143">
        <ele>1125.880115</ele>
        <time>2022-04-29T13:14:25.000Z</time>
      </trkpt>
      <trkpt lat="46.13528" lon="5.72147">
        <ele>1125.896174</ele>
        <time>2022-04-29T13:14:27.000Z</time>
      </trkpt>
      <trkpt lat="46.13521" lon="5.72152">
        <ele>1125.927233</ele>
        <time>2022-04-29T13:14:31.000Z</time>
      </trkpt>
      <trkpt lat="46.13511" lon="5.72158">
        <ele>1125.96692</ele>
        <time>2022-04-29T13:14:36.000Z</time>
      </trkpt>
      <trkpt lat="46.13505" lon="5.72165">
        <ele>1125.996963</ele>
        <time>2022-04-29T13:14:40.000Z</time>
      </trkpt>
      <trkpt lat="46.135" lon="5.72173">
        <ele>1126.024343</ele>
        <time>2022-04-29T13:14:44.000Z</time>
      </trkpt>
      <trkpt lat="46.13489" lon="5.72186">
        <ele>1126.176326</ele>
        <time>2022-04-29T13:15:29.000Z</time>
      </trkpt>
      <trkpt lat="46.13482" lon="5.72196">
        <ele>1126.268987</ele>
        <time>2022-04-29T13:15:33.000Z</time>
      </trkpt>
      <trkpt lat="46.1347" lon="5.72204">
        <ele>1126.38224</ele>
        <time>2022-04-29T13:15:38.000Z</time>
      </trkpt>
      <trkpt lat="46.13462" lon="5.72208">
        <ele>1126.453727</ele>
        <time>2022-04-29T13:15:42.000Z</time>
      </trkpt>
      <trkpt lat="46.13456" lon="5.72212">
        <ele>1126.515899</ele>
        <time>2022-04-29T13:15:46.000Z</time>
      </trkpt>
      <trkpt lat="46.13448" lon="5.72215">
        <ele>1126.590036</ele>
        <time>2022-04-29T13:15:50.000Z</time>
      </trkpt>
      <trkpt lat="46.13436" lon="5.72208">
        <ele>1126.698082</ele>
        <time>2022-04-29T13:15:55.000Z</time>
      </trkpt>
      <trkpt lat="46.13427" lon="5.72204">
        <ele>1126.78282</ele>
        <time>2022-04-29T13:15:59.000Z</time>
      </trkpt>
      <trkpt lat="46.13418" lon="5.72208">
        <ele>1126.863647</ele>
        <time>2022-04-29T13:16:03.000Z</time>
      </trkpt>
      <trkpt lat="46.13408" lon="5.72209">
        <ele>1126.946221</ele>
        <time>2022-04-29T13:16:07.000Z</time>
      </trkpt>
      <trkpt lat="46.13396" lon="5.72212">
        <ele>1127.0591</ele>
        <time>2022-04-29T13:16:12.000Z</time>
      </trkpt>
      <trkpt lat="46.13385" lon="5.72215">
        <ele>1127.152523</ele>
        <time>2022-04-29T13:16:16.000Z</time>
      </trkpt>
      <trkpt lat="46.13374" lon="5.72217">
        <ele>1127.24956</ele>
        <time>2022-04-29T13:16:20.000Z</time>
      </trkpt>
      <trkpt lat="46.13364" lon="5.72216">
        <ele>1127.341212</ele>
        <time>2022-04-29T13:16:24.000Z</time>
      </trkpt>
      <trkpt lat="46.13354" lon="5.72215">
        <ele>1127.42453</ele>
        <time>2022-04-29T13:16:28.000Z</time>
      </trkpt>
      <trkpt lat="46.13343" lon="5.72211">
        <ele>1127.526395</ele>
        <time>2022-04-29T13:16:33.000Z</time>
      </trkpt>
      <trkpt lat="46.13332" lon="5.72207">
        <ele>1127.621268</ele>
        <time>2022-04-29T13:16:37.000Z</time>
      </trkpt>
      <trkpt lat="46.13322" lon="5.72202">
        <ele>1127.3473</ele>
        <time>2022-04-29T13:16:41.000Z</time>
      </trkpt>
      <trkpt lat="46.13313" lon="5.72198">
        <ele>1126.957952</ele>
        <time>2022-04-29T13:16:45.000Z</time>
      </trkpt>
      <trkpt lat="46.133" lon="5.72196">
        <ele>1126.435332</ele>
        <time>2022-04-29T13:16:50.000Z</time>
      </trkpt>
      <trkpt lat="46.13291" lon="5.72193">
        <ele>1126.050655</ele>
        <time>2022-04-29T13:16:54.000Z</time>
      </trkpt>
      <trkpt lat="46.13279" lon="5.72187">
        <ele>1125.562548</ele>
        <time>2022-04-29T13:16:59.000Z</time>
      </trkpt>
      <trkpt lat="46.1327" lon="5.72181">
        <ele>1125.159468</ele>
        <time>2022-04-29T13:17:03.000Z</time>
      </trkpt>
      <trkpt lat="46.13259" lon="5.72177">
        <ele>1124.693622</ele>
        <time>2022-04-29T13:17:08.000Z</time>
      </trkpt>
      <trkpt lat="46.13248" lon="5.72176">
        <ele>1124.272024</ele>
        <time>2022-04-29T13:17:12.000Z</time>
      </trkpt>
      <trkpt lat="46.13239" lon="5.72175">
        <ele>1123.905386</ele>
        <time>2022-04-29T13:17:16.000Z</time>
      </trkpt>
      <trkpt lat="46.13233" lon="5.72175">
        <ele>1123.635884</ele>
        <time>2022-04-29T13:17:20.000Z</time>
      </trkpt>
      <trkpt lat="46.13228" lon="5.72177">
        <ele>1123.451969</ele>
        <time>2022-04-29T13:17:24.000Z</time>
      </trkpt>
      <trkpt lat="46.13218" lon="5.72181">
        <ele>1123.016125</ele>
        <time>2022-04-29T13:17:30.000Z</time>
      </trkpt>
      <trkpt lat="46.13212" lon="5.72182">
        <ele>1122.796415</ele>
        <time>2022-04-29T13:17:34.000Z</time>
      </trkpt>
      <trkpt lat="46.13207" lon="5.72181">
        <ele>1122.569616</ele>
        <time>2022-04-29T13:17:38.000Z</time>
      </trkpt>
      <trkpt lat="46.13203" lon="5.7218">
        <ele>1122.400889</ele>
        <time>2022-04-29T13:17:42.000Z</time>
      </trkpt>
      <trkpt lat="46.13197" lon="5.72178">
        <ele>1122.14618</ele>
        <time>2022-04-29T13:17:47.000Z</time>
      </trkpt>
      <trkpt lat="46.13192" lon="5.72176">
        <ele>1121.943599</ele>
        <time>2022-04-29T13:17:51.000Z</time>
      </trkpt>
      <trkpt lat="46.13187" lon="5.72173">
        <ele>1121.712588</ele>
        <time>2022-04-29T13:17:55.000Z</time>
      </trkpt>
      <trkpt lat="46.13182" lon="5.72169">
        <ele>1121.477987</ele>
        <time>2022-04-29T13:17:59.000Z</time>
      </trkpt>
      <trkpt lat="46.13174" lon="5.72164">
        <ele>1121.14447</ele>
        <time>2022-04-29T13:18:04.000Z</time>
      </trkpt>
      <trkpt lat="46.13165" lon="5.7216">
        <ele>1120.767533</ele>
        <time>2022-04-29T13:18:08.000Z</time>
      </trkpt>
      <trkpt lat="46.13156" lon="5.72159">
        <ele>1120.461692</ele>
        <time>2022-04-29T13:18:12.000Z</time>
      </trkpt>
      <trkpt lat="46.13147" lon="5.72158">
        <ele>1120.730587</ele>
        <time>2022-04-29T13:18:16.000Z</time>
      </trkpt>
      <trkpt lat="46.13138" lon="5.72159">
        <ele>1121.038227</ele>
        <time>2022-04-29T13:18:20.000Z</time>
      </trkpt>
      <trkpt lat="46.13129" lon="5.72162">
        <ele>1121.315827</ele>
        <time>2022-04-29T13:18:25.000Z</time>
      </trkpt>
      <trkpt lat="46.13126" lon="5.72165">
        <ele>1121.445665</ele>
        <time>2022-04-29T13:18:29.000Z</time>
      </trkpt>
      <trkpt lat="46.1312" lon="5.72167">
        <ele>1121.631835</ele>
        <time>2022-04-29T13:18:33.000Z</time>
      </trkpt>
      <trkpt lat="46.13115" lon="5.72166">
        <ele>1121.813598</ele>
        <time>2022-04-29T13:18:37.000Z</time>
      </trkpt>
      <trkpt lat="46.13108" lon="5.72162">
        <ele>1122.048467</ele>
        <time>2022-04-29T13:18:42.000Z</time>
      </trkpt>
      <trkpt lat="46.13102" lon="5.72164">
        <ele>1122.239324</ele>
        <time>2022-04-29T13:18:46.000Z</time>
      </trkpt>
      <trkpt lat="46.13095" lon="5.72162">
        <ele>1122.4569</ele>
        <time>2022-04-29T13:18:50.000Z</time>
      </trkpt>
      <trkpt lat="46.13089" lon="5.72159">
        <ele>1122.666504</ele>
        <time>2022-04-29T13:18:54.000Z</time>
      </trkpt>
      <trkpt lat="46.13081" lon="5.72152">
        <ele>1122.969949</ele>
        <time>2022-04-29T13:18:59.000Z</time>
      </trkpt>
      <trkpt lat="46.13076" lon="5.7215">
        <ele>1123.137385</ele>
        <time>2022-04-29T13:19:03.000Z</time>
      </trkpt>
      <trkpt lat="46.13071" lon="5.72148">
        <ele>1123.290241</ele>
        <time>2022-04-29T13:19:07.000Z</time>
      </trkpt>
      <trkpt lat="46.13065" lon="5.72147">
        <ele>1123.475082</ele>
        <time>2022-04-29T13:19:11.000Z</time>
      </trkpt>
      <trkpt lat="46.1306" lon="5.72145">
        <ele>1123.656101</ele>
        <time>2022-04-29T13:19:15.000Z</time>
      </trkpt>
      <trkpt lat="46.13054" lon="5.72143">
        <ele>1123.851726</ele>
        <time>2022-04-29T13:19:20.000Z</time>
      </trkpt>
      <trkpt lat="46.1305" lon="5.72146">
        <ele>1123.98873</ele>
        <time>2022-04-29T13:19:24.000Z</time>
      </trkpt>
      <trkpt lat="46.13046" lon="5.72142">
        <ele>1124.142855</ele>
        <time>2022-04-29T13:19:28.000Z</time>
      </trkpt>
      <trkpt lat="46.1304" lon="5.72141">
        <ele>1124.324022</ele>
        <time>2022-04-29T13:19:32.000Z</time>
      </trkpt>
      <trkpt lat="46.13033" lon="5.7214">
        <ele>1124.552954</ele>
        <time>2022-04-29T13:19:37.000Z</time>
      </trkpt>
      <trkpt lat="46.13028" lon="5.72138">
        <ele>1124.71984</ele>
        <time>2022-04-29T13:19:41.000Z</time>
      </trkpt>
      <trkpt lat="46.13023" lon="5.72132">
        <ele>1124.926476</ele>
        <time>2022-04-29T13:19:45.000Z</time>
      </trkpt>
      <trkpt lat="46.13018" lon="5.7213">
        <ele>1125.085244</ele>
        <time>2022-04-29T13:19:49.000Z</time>
      </trkpt>
      <trkpt lat="46.13012" lon="5.72129">
        <ele>1125.294637</ele>
        <time>2022-04-29T13:19:54.000Z</time>
      </trkpt>
      <trkpt lat="46.13006" lon="5.72127">
        <ele>1125.493366</ele>
        <time>2022-04-29T13:19:58.000Z</time>
      </trkpt>
      <trkpt lat="46.13003" lon="5.72128">
        <ele>1125.580316</ele>
        <time>2022-04-29T13:20:02.000Z</time>
      </trkpt>
      <trkpt lat="46.12995" lon="5.72124">
        <ele>1125.85934</ele>
        <time>2022-04-29T13:20:06.000Z</time>
      </trkpt>
      <trkpt lat="46.12985" lon="5.72121">
        <ele>1126.192568</ele>
        <time>2022-04-29T13:20:10.000Z</time>
      </trkpt>
      <trkpt lat="46.12971" lon="5.72119">
        <ele>1126.673613</ele>
        <time>2022-04-29T13:20:15.000Z</time>
      </trkpt>
      <trkpt lat="46.12962" lon="5.72121">
        <ele>1127.003157</ele>
        <time>2022-04-29T13:20:19.000Z</time>
      </trkpt>
      <trkpt lat="46.12954" lon="5.72128">
        <ele>1127.366512</ele>
        <time>2022-04-29T13:20:23.000Z</time>
      </trkpt>
      <trkpt lat="46.1294" lon="5.72129">
        <ele>1127.860192</ele>
        <time>2022-04-29T13:20:28.000Z</time>
      </trkpt>
      <trkpt lat="46.12928" lon="5.72125">
        <ele>1128.302156</ele>
        <time>2022-04-29T13:20:33.000Z</time>
      </trkpt>
      <trkpt lat="46.12919" lon="5.72121">
        <ele>1128.642297</ele>
        <time>2022-04-29T13:20:37.000Z</time>
      </trkpt>
      <trkpt lat="46.12909" lon="5.72117">
        <ele>1129.007404</ele>
        <time>2022-04-29T13:20:41.000Z</time>
      </trkpt>
      <trkpt lat="46.12898" lon="5.72109">
        <ele>1129.433149</ele>
        <time>2022-04-29T13:20:46.000Z</time>
      </trkpt>
      <trkpt lat="46.12888" lon="5.72109">
        <ele>1129.835305</ele>
        <time>2022-04-29T13:20:51.000Z</time>
      </trkpt>
      <trkpt lat="46.12878" lon="5.72116">
        <ele>1130.237185</ele>
        <time>2022-04-29T13:20:56.000Z</time>
      </trkpt>
      <trkpt lat="46.12873" lon="5.72127">
        <ele>1130.559618</ele>
        <time>2022-04-29T13:21:00.000Z</time>
      </trkpt>
      <trkpt lat="46.12869" lon="5.72139">
        <ele>1130.891136</ele>
        <time>2022-04-29T13:21:04.000Z</time>
      </trkpt>
      <trkpt lat="46.12861" lon="5.72148">
        <ele>1131.246323</ele>
        <time>2022-04-29T13:21:08.000Z</time>
      </trkpt>
      <trkpt lat="46.12849" lon="5.72148">
        <ele>1131.708</ele>
        <time>2022-04-29T13:21:13.000Z</time>
      </trkpt>
      <trkpt lat="46.12838" lon="5.7215">
        <ele>1132.087951</ele>
        <time>2022-04-29T13:21:17.000Z</time>
      </trkpt>
      <trkpt lat="46.12827" lon="5.72152">
        <ele>1132.475398</ele>
        <time>2022-04-29T13:21:21.000Z</time>
      </trkpt>
      <trkpt lat="46.12818" lon="5.72153">
        <ele>1132.343866</ele>
        <time>2022-04-29T13:21:25.000Z</time>
      </trkpt>
      <trkpt lat="46.12805" lon="5.72157">
        <ele>1131.982066</ele>
        <time>2022-04-29T13:21:30.000Z</time>
      </trkpt>
      <trkpt lat="46.12795" lon="5.7216">
        <ele>1131.686491</ele>
        <time>2022-04-29T13:21:34.000Z</time>
      </trkpt>
      <trkpt lat="46.12785" lon="5.72162">
        <ele>1131.378285</ele>
        <time>2022-04-29T13:21:38.000Z</time>
      </trkpt>
      <trkpt lat="46.12774" lon="5.72166">
        <ele>1131.060315</ele>
        <time>2022-04-29T13:21:42.000Z</time>
      </trkpt>
      <trkpt lat="46.12763" lon="5.72177">
        <ele>1130.668043</ele>
        <time>2022-04-29T13:21:47.000Z</time>
      </trkpt>
      <trkpt lat="46.12755" lon="5.72189">
        <ele>1130.347329</ele>
        <time>2022-04-29T13:21:51.000Z</time>
      </trkpt>
      <trkpt lat="46.12751" lon="5.72203">
        <ele>1130.051575</ele>
        <time>2022-04-29T13:21:55.000Z</time>
      </trkpt>
      <trkpt lat="46.12748" lon="5.72218">
        <ele>1129.735467</ele>
        <time>2022-04-29T13:21:59.000Z</time>
      </trkpt>
      <trkpt lat="46.12744" lon="5.72236">
        <ele>1129.366584</ele>
        <time>2022-04-29T13:22:04.000Z</time>
      </trkpt>
      <trkpt lat="46.12737" lon="5.72249">
        <ele>1129.043122</ele>
        <time>2022-04-29T13:22:08.000Z</time>
      </trkpt>
      <trkpt lat="46.1273" lon="5.7226">
        <ele>1128.73462</ele>
        <time>2022-04-29T13:22:12.000Z</time>
      </trkpt>
      <trkpt lat="46.1272" lon="5.72273">
        <ele>1128.350987</ele>
        <time>2022-04-29T13:22:17.000Z</time>
      </trkpt>
      <trkpt lat="46.12711" lon="5.72283">
        <ele>1128.038623</ele>
        <time>2022-04-29T13:22:21.000Z</time>
      </trkpt>
      <trkpt lat="46.12701" lon="5.72299">
        <ele>1127.611067</ele>
        <time>2022-04-29T13:22:27.000Z</time>
      </trkpt>
      <trkpt lat="46.12695" lon="5.7231">
        <ele>1127.456062</ele>
        <time>2022-04-29T13:22:31.000Z</time>
      </trkpt>
      <trkpt lat="46.12688" lon="5.7232">
        <ele>1127.568417</ele>
        <time>2022-04-29T13:22:35.000Z</time>
      </trkpt>
      <trkpt lat="46.12681" lon="5.72331">
        <ele>1127.683954</ele>
        <time>2022-04-29T13:22:39.000Z</time>
      </trkpt>
      <trkpt lat="46.12674" lon="5.72345">
        <ele>1127.826215</ele>
        <time>2022-04-29T13:22:44.000Z</time>
      </trkpt>
      <trkpt lat="46.12668" lon="5.72356">
        <ele>1127.938417</ele>
        <time>2022-04-29T13:22:48.000Z</time>
      </trkpt>
      <trkpt lat="46.12661" lon="5.72366">
        <ele>1128.047887</ele>
        <time>2022-04-29T13:22:52.000Z</time>
      </trkpt>
      <trkpt lat="46.12655" lon="5.72377">
        <ele>1128.15966</ele>
        <time>2022-04-29T13:22:56.000Z</time>
      </trkpt>
      <trkpt lat="46.12648" lon="5.72392">
        <ele>1128.304667</ele>
        <time>2022-04-29T13:23:01.000Z</time>
      </trkpt>
      <trkpt lat="46.12643" lon="5.72403">
        <ele>1128.410494</ele>
        <time>2022-04-29T13:23:05.000Z</time>
      </trkpt>
      <trkpt lat="46.12638" lon="5.72416">
        <ele>1128.527529</ele>
        <time>2022-04-29T13:23:09.000Z</time>
      </trkpt>
      <trkpt lat="46.12631" lon="5.72428">
        <ele>1128.647989</ele>
        <time>2022-04-29T13:23:13.000Z</time>
      </trkpt>
      <trkpt lat="46.12625" lon="5.72438">
        <ele>1128.7582</ele>
        <time>2022-04-29T13:23:17.000Z</time>
      </trkpt>
      <trkpt lat="46.12616" lon="5.7245">
        <ele>1128.89908</ele>
        <time>2022-04-29T13:23:22.000Z</time>
      </trkpt>
      <trkpt lat="46.12608" lon="5.72459">
        <ele>1129.01391</ele>
        <time>2022-04-29T13:23:26.000Z</time>
      </trkpt>
      <trkpt lat="46.126" lon="5.72467">
        <ele>1129.130597</ele>
        <time>2022-04-29T13:23:30.000Z</time>
      </trkpt>
      <trkpt lat="46.12591" lon="5.72475">
        <ele>1129.248279</ele>
        <time>2022-04-29T13:23:34.000Z</time>
      </trkpt>
      <trkpt lat="46.1256" lon="5.72508">
        <ele>1129.309137</ele>
        <time>2022-04-29T13:23:39.000Z</time>
      </trkpt>
      <trkpt lat="46.12551" lon="5.72517">
        <ele>1129.209492</ele>
        <time>2022-04-29T13:24:03.000Z</time>
      </trkpt>
      <trkpt lat="46.12543" lon="5.72525">
        <ele>1129.112797</ele>
        <time>2022-04-29T13:24:07.000Z</time>
      </trkpt>
      <trkpt lat="46.12535" lon="5.72529">
        <ele>1129.034067</ele>
        <time>2022-04-29T13:24:11.000Z</time>
      </trkpt>
      <trkpt lat="46.12524" lon="5.72539">
        <ele>1128.912732</ele>
        <time>2022-04-29T13:24:16.000Z</time>
      </trkpt>
      <trkpt lat="46.12519" lon="5.72543">
        <ele>1128.855221</ele>
        <time>2022-04-29T13:24:20.000Z</time>
      </trkpt>
      <trkpt lat="46.12518" lon="5.72543">
        <ele>1128.846164</ele>
        <time>2022-04-29T13:24:24.000Z</time>
      </trkpt>
      <trkpt lat="46.12518" lon="5.72543">
        <ele>1128.836291</ele>
        <time>2022-04-29T13:24:28.000Z</time>
      </trkpt>
      <trkpt lat="46.12513" lon="5.72548">
        <ele>1128.781862</ele>
        <time>2022-04-29T13:24:32.000Z</time>
      </trkpt>
      <trkpt lat="46.12503" lon="5.72556">
        <ele>1128.671919</ele>
        <time>2022-04-29T13:24:37.000Z</time>
      </trkpt>
      <trkpt lat="46.12497" lon="5.72565">
        <ele>1128.589151</ele>
        <time>2022-04-29T13:24:41.000Z</time>
      </trkpt>
      <trkpt lat="46.12492" lon="5.72577">
        <ele>1128.497412</ele>
        <time>2022-04-29T13:24:45.000Z</time>
      </trkpt>
      <trkpt lat="46.12488" lon="5.72587">
        <ele>1128.424127</ele>
        <time>2022-04-29T13:24:49.000Z</time>
      </trkpt>
      <trkpt lat="46.12479" lon="5.72599">
        <ele>1128.308737</ele>
        <time>2022-04-29T13:24:54.000Z</time>
      </trkpt>
      <trkpt lat="46.12472" lon="5.72607">
        <ele>1128.221721</ele>
        <time>2022-04-29T13:24:58.000Z</time>
      </trkpt>
      <trkpt lat="46.12463" lon="5.72615">
        <ele>1128.119825</ele>
        <time>2022-04-29T13:25:02.000Z</time>
      </trkpt>
      <trkpt lat="46.12453" lon="5.7261">
        <ele>1128.017325</ele>
        <time>2022-04-29T13:25:06.000Z</time>
      </trkpt>
      <trkpt lat="46.1244" lon="5.72605">
        <ele>1127.886833</ele>
        <time>2022-04-29T13:25:11.000Z</time>
      </trkpt>
      <trkpt lat="46.1243" lon="5.72608">
        <ele>1127.785853</ele>
        <time>2022-04-29T13:25:15.000Z</time>
      </trkpt>
      <trkpt lat="46.1242" lon="5.72613">
        <ele>1127.392538</ele>
        <time>2022-04-29T13:25:19.000Z</time>
      </trkpt>
      <trkpt lat="46.1241" lon="5.7262">
        <ele>1127.002175</ele>
        <time>2022-04-29T13:25:23.000Z</time>
      </trkpt>
      <trkpt lat="46.12399" lon="5.72624">
        <ele>1126.571423</ele>
        <time>2022-04-29T13:25:27.000Z</time>
      </trkpt>
      <trkpt lat="46.12384" lon="5.72624">
        <ele>1126.038659</ele>
        <time>2022-04-29T13:25:32.000Z</time>
      </trkpt>
      <trkpt lat="46.12374" lon="5.72621">
        <ele>1125.637169</ele>
        <time>2022-04-29T13:25:36.000Z</time>
      </trkpt>
      <trkpt lat="46.12363" lon="5.72619">
        <ele>1125.231464</ele>
        <time>2022-04-29T13:25:40.000Z</time>
      </trkpt>
      <trkpt lat="46.12352" lon="5.72614">
        <ele>1124.817636</ele>
        <time>2022-04-29T13:25:44.000Z</time>
      </trkpt>
      <trkpt lat="46.12339" lon="5.72606">
        <ele>1124.304525</ele>
        <time>2022-04-29T13:25:49.000Z</time>
      </trkpt>
      <trkpt lat="46.12329" lon="5.72596">
        <ele>1123.8661</ele>
        <time>2022-04-29T13:25:53.000Z</time>
      </trkpt>
      <trkpt lat="46.1232" lon="5.72586">
        <ele>1123.453297</ele>
        <time>2022-04-29T13:25:57.000Z</time>
      </trkpt>
      <trkpt lat="46.12312" lon="5.72577">
        <ele>1123.053604</ele>
        <time>2022-04-29T13:26:01.000Z</time>
      </trkpt>
      <trkpt lat="46.12302" lon="5.72561">
        <ele>1122.533143</ele>
        <time>2022-04-29T13:26:06.000Z</time>
      </trkpt>
      <trkpt lat="46.12301" lon="5.72544">
        <ele>1122.096742</ele>
        <time>2022-04-29T13:26:10.000Z</time>
      </trkpt>
      <trkpt lat="46.12303" lon="5.72527">
        <ele>1121.654229</ele>
        <time>2022-04-29T13:26:14.000Z</time>
      </trkpt>
      <trkpt lat="46.12305" lon="5.72509">
        <ele>1121.218649</ele>
        <time>2022-04-29T13:26:18.000Z</time>
      </trkpt>
      <trkpt lat="46.12303" lon="5.72493">
        <ele>1121.296811</ele>
        <time>2022-04-29T13:26:22.000Z</time>
      </trkpt>
      <trkpt lat="46.12298" lon="5.72473">
        <ele>1121.402591</ele>
        <time>2022-04-29T13:26:27.000Z</time>
      </trkpt>
      <trkpt lat="46.12295" lon="5.72458">
        <ele>1121.479673</ele>
        <time>2022-04-29T13:26:31.000Z</time>
      </trkpt>
      <trkpt lat="46.1229" lon="5.72443">
        <ele>1121.557421</ele>
        <time>2022-04-29T13:26:35.000Z</time>
      </trkpt>
      <trkpt lat="46.12286" lon="5.72429">
        <ele>1121.632858</ele>
        <time>2022-04-29T13:26:39.000Z</time>
      </trkpt>
      <trkpt lat="46.1228" lon="5.72412">
        <ele>1121.724694</ele>
        <time>2022-04-29T13:26:44.000Z</time>
      </trkpt>
      <trkpt lat="46.12274" lon="5.724">
        <ele>1121.800098</ele>
        <time>2022-04-29T13:26:48.000Z</time>
      </trkpt>
      <trkpt lat="46.12265" lon="5.72391">
        <ele>1121.875601</ele>
        <time>2022-04-29T13:26:52.000Z</time>
      </trkpt>
      <trkpt lat="46.12255" lon="5.72385">
        <ele>1121.952116</ele>
        <time>2022-04-29T13:26:56.000Z</time>
      </trkpt>
      <trkpt lat="46.12242" lon="5.7238">
        <ele>1122.04427</ele>
        <time>2022-04-29T13:27:01.000Z</time>
      </trkpt>
      <trkpt lat="46.12231" lon="5.72379">
        <ele>1122.119748</ele>
        <time>2022-04-29T13:27:05.000Z</time>
      </trkpt>
      <trkpt lat="46.12221" lon="5.72378">
        <ele>1122.193542</ele>
        <time>2022-04-29T13:27:09.000Z</time>
      </trkpt>
      <trkpt lat="46.1221" lon="5.7238">
        <ele>1122.267735</ele>
        <time>2022-04-29T13:27:13.000Z</time>
      </trkpt>
      <trkpt lat="46.12201" lon="5.72384">
        <ele>1122.336229</ele>
        <time>2022-04-29T13:27:17.000Z</time>
      </trkpt>
      <trkpt lat="46.1219" lon="5.7239">
        <ele>1122.42002</ele>
        <time>2022-04-29T13:27:22.000Z</time>
      </trkpt>
      <trkpt lat="46.1218" lon="5.72394">
        <ele>1122.505189</ele>
        <time>2022-04-29T13:27:26.000Z</time>
      </trkpt>
      <trkpt lat="46.12169" lon="5.72398">
        <ele>1122.617141</ele>
        <time>2022-04-29T13:27:30.000Z</time>
      </trkpt>
      <trkpt lat="46.1216" lon="5.72402">
        <ele>1122.723573</ele>
        <time>2022-04-29T13:27:34.000Z</time>
      </trkpt>
      <trkpt lat="46.12148" lon="5.72404">
        <ele>1122.851621</ele>
        <time>2022-04-29T13:27:39.000Z</time>
      </trkpt>
      <trkpt lat="46.12138" lon="5.72407">
        <ele>1122.958665</ele>
        <time>2022-04-29T13:27:43.000Z</time>
      </trkpt>
      <trkpt lat="46.12128" lon="5.7241">
        <ele>1123.065732</ele>
        <time>2022-04-29T13:27:47.000Z</time>
      </trkpt>
      <trkpt lat="46.12118" lon="5.72416">
        <ele>1123.173302</ele>
        <time>2022-04-29T13:27:51.000Z</time>
      </trkpt>
      <trkpt lat="46.12106" lon="5.72424">
        <ele>1123.317118</ele>
        <time>2022-04-29T13:27:56.000Z</time>
      </trkpt>
      <trkpt lat="46.12097" lon="5.7243">
        <ele>1123.422644</ele>
        <time>2022-04-29T13:28:00.000Z</time>
      </trkpt>
      <trkpt lat="46.12088" lon="5.72438">
        <ele>1123.534102</ele>
        <time>2022-04-29T13:28:04.000Z</time>
      </trkpt>
      <trkpt lat="46.12079" lon="5.72446">
        <ele>1123.642659</ele>
        <time>2022-04-29T13:28:08.000Z</time>
      </trkpt>
      <trkpt lat="46.1207" lon="5.72453">
        <ele>1123.754084</ele>
        <time>2022-04-29T13:28:12.000Z</time>
      </trkpt>
      <trkpt lat="46.12059" lon="5.72461">
        <ele>1123.878397</ele>
        <time>2022-04-29T13:28:17.000Z</time>
      </trkpt>
      <trkpt lat="46.12049" lon="5.72465">
        <ele>1123.988683</ele>
        <time>2022-04-29T13:28:21.000Z</time>
      </trkpt>
      <trkpt lat="46.12039" lon="5.72469">
        <ele>1124.10118</ele>
        <time>2022-04-29T13:28:25.000Z</time>
      </trkpt>
      <trkpt lat="46.12029" lon="5.72471">
        <ele>1124.213108</ele>
        <time>2022-04-29T13:28:29.000Z</time>
      </trkpt>
      <trkpt lat="46.12015" lon="5.72473">
        <ele>1124.358128</ele>
        <time>2022-04-29T13:28:34.000Z</time>
      </trkpt>
      <trkpt lat="46.12004" lon="5.72474">
        <ele>1125.221154</ele>
        <time>2022-04-29T13:28:38.000Z</time>
      </trkpt>
      <trkpt lat="46.11995" lon="5.72472">
        <ele>1126.053414</ele>
        <time>2022-04-29T13:28:42.000Z</time>
      </trkpt>
      <trkpt lat="46.11987" lon="5.72471">
        <ele>1126.824512</ele>
        <time>2022-04-29T13:28:46.000Z</time>
      </trkpt>
      <trkpt lat="46.11976" lon="5.72473">
        <ele>1127.801044</ele>
        <time>2022-04-29T13:28:51.000Z</time>
      </trkpt>
      <trkpt lat="46.11968" lon="5.72475">
        <ele>1128.610938</ele>
        <time>2022-04-29T13:28:55.000Z</time>
      </trkpt>
      <trkpt lat="46.11959" lon="5.72478">
        <ele>1129.430557</ele>
        <time>2022-04-29T13:28:59.000Z</time>
      </trkpt>
      <trkpt lat="46.1195" lon="5.72482">
        <ele>1130.286812</ele>
        <time>2022-04-29T13:29:03.000Z</time>
      </trkpt>
      <trkpt lat="46.11941" lon="5.72488">
        <ele>1131.132509</ele>
        <time>2022-04-29T13:29:07.000Z</time>
      </trkpt>
      <trkpt lat="46.1193" lon="5.72494">
        <ele>1132.188633</ele>
        <time>2022-04-29T13:29:12.000Z</time>
      </trkpt>
      <trkpt lat="46.11923" lon="5.72498">
        <ele>1132.895564</ele>
        <time>2022-04-29T13:29:16.000Z</time>
      </trkpt>
      <trkpt lat="46.11916" lon="5.72502">
        <ele>1133.610479</ele>
        <time>2022-04-29T13:29:20.000Z</time>
      </trkpt>
      <trkpt lat="46.11909" lon="5.72506">
        <ele>1134.301582</ele>
        <time>2022-04-29T13:29:24.000Z</time>
      </trkpt>
      <trkpt lat="46.11901" lon="5.72512">
        <ele>1135.146498</ele>
        <time>2022-04-29T13:29:29.000Z</time>
      </trkpt>
      <trkpt lat="46.11883" lon="5.72525">
        <ele>1136.920064</ele>
        <time>2022-04-29T13:29:33.000Z</time>
      </trkpt>
      <trkpt lat="46.11878" lon="5.72531">
        <ele>1137.52169</ele>
        <time>2022-04-29T13:30:12.000Z</time>
      </trkpt>
      <trkpt lat="46.11878" lon="5.72535">
        <ele>1137.89021</ele>
        <time>2022-04-29T13:30:16.000Z</time>
      </trkpt>
      <trkpt lat="46.11881" lon="5.72542">
        <ele>1138.402405</ele>
        <time>2022-04-29T13:30:21.000Z</time>
      </trkpt>
      <trkpt lat="46.11886" lon="5.72545">
        <ele>1138.963141</ele>
        <time>2022-04-29T13:30:25.000Z</time>
      </trkpt>
      <trkpt lat="46.11893" lon="5.72548">
        <ele>1139.632898</ele>
        <time>2022-04-29T13:30:29.000Z</time>
      </trkpt>
      <trkpt lat="46.11895" lon="5.72548">
        <ele>1139.840591</ele>
        <time>2022-04-29T13:30:33.000Z</time>
      </trkpt>
      <trkpt lat="46.11901" lon="5.72553">
        <ele>1140.476249</ele>
        <time>2022-04-29T13:30:38.000Z</time>
      </trkpt>
      <trkpt lat="46.11909" lon="5.72557">
        <ele>1141.404273</ele>
        <time>2022-04-29T13:30:42.000Z</time>
      </trkpt>
      <trkpt lat="46.11917" lon="5.72563">
        <ele>1142.46837</ele>
        <time>2022-04-29T13:30:46.000Z</time>
      </trkpt>
      <trkpt lat="46.11923" lon="5.72568">
        <ele>1143.397885</ele>
        <time>2022-04-29T13:30:50.000Z</time>
      </trkpt>
      <trkpt lat="46.11931" lon="5.72576">
        <ele>1144.494197</ele>
        <time>2022-04-29T13:30:54.000Z</time>
      </trkpt>
      <trkpt lat="46.1194" lon="5.72584">
        <ele>1145.768202</ele>
        <time>2022-04-29T13:30:59.000Z</time>
      </trkpt>
      <trkpt lat="46.11945" lon="5.72592">
        <ele>1146.633107</ele>
        <time>2022-04-29T13:31:03.000Z</time>
      </trkpt>
      <trkpt lat="46.11951" lon="5.72599">
        <ele>1147.581183</ele>
        <time>2022-04-29T13:31:07.000Z</time>
      </trkpt>
      <trkpt lat="46.11956" lon="5.72608">
        <ele>1148.520951</ele>
        <time>2022-04-29T13:31:11.000Z</time>
      </trkpt>
      <trkpt lat="46.11961" lon="5.72619">
        <ele>1149.609888</ele>
        <time>2022-04-29T13:31:16.000Z</time>
      </trkpt>
      <trkpt lat="46.11964" lon="5.72627">
        <ele>1150.414589</ele>
        <time>2022-04-29T13:31:20.000Z</time>
      </trkpt>
      <trkpt lat="46.11966" lon="5.72636">
        <ele>1151.197807</ele>
        <time>2022-04-29T13:31:24.000Z</time>
      </trkpt>
      <trkpt lat="46.11967" lon="5.72647">
        <ele>1152.095525</ele>
        <time>2022-04-29T13:31:28.000Z</time>
      </trkpt>
      <trkpt lat="46.11961" lon="5.72661">
        <ele>1153.472983</ele>
        <time>2022-04-29T13:31:33.000Z</time>
      </trkpt>
      <trkpt lat="46.11956" lon="5.72671">
        <ele>1154.513734</ele>
        <time>2022-04-29T13:31:37.000Z</time>
      </trkpt>
      <trkpt lat="46.1195" lon="5.72682">
        <ele>1155.633276</ele>
        <time>2022-04-29T13:31:41.000Z</time>
      </trkpt>
      <trkpt lat="46.11945" lon="5.72689">
        <ele>1156.456068</ele>
        <time>2022-04-29T13:31:45.000Z</time>
      </trkpt>
      <trkpt lat="46.11941" lon="5.72695">
        <ele>1157.221334</ele>
        <time>2022-04-29T13:31:49.000Z</time>
      </trkpt>
      <trkpt lat="46.11933" lon="5.72706">
        <ele>1158.532479</ele>
        <time>2022-04-29T13:31:54.000Z</time>
      </trkpt>
      <trkpt lat="46.11925" lon="5.72717">
        <ele>1159.768283</ele>
        <time>2022-04-29T13:31:58.000Z</time>
      </trkpt>
      <trkpt lat="46.11918" lon="5.72727">
        <ele>1160.932781</ele>
        <time>2022-04-29T13:32:02.000Z</time>
      </trkpt>
      <trkpt lat="46.11912" lon="5.72737">
        <ele>1162.063533</ele>
        <time>2022-04-29T13:32:06.000Z</time>
      </trkpt>
      <trkpt lat="46.11905" lon="5.72749">
        <ele>1162.557837</ele>
        <time>2022-04-29T13:32:11.000Z</time>
      </trkpt>
      <trkpt lat="46.119" lon="5.72758">
        <ele>1162.926064</ele>
        <time>2022-04-29T13:32:15.000Z</time>
      </trkpt>
      <trkpt lat="46.11893" lon="5.72765">
        <ele>1163.311808</ele>
        <time>2022-04-29T13:32:19.000Z</time>
      </trkpt>
      <trkpt lat="46.11885" lon="5.72772">
        <ele>1163.755349</ele>
        <time>2022-04-29T13:32:23.000Z</time>
      </trkpt>
      <trkpt lat="46.11874" lon="5.72781">
        <ele>1164.323047</ele>
        <time>2022-04-29T13:32:28.000Z</time>
      </trkpt>
      <trkpt lat="46.11867" lon="5.72785">
        <ele>1164.681308</ele>
        <time>2022-04-29T13:32:32.000Z</time>
      </trkpt>
      <trkpt lat="46.1186" lon="5.72789">
        <ele>1165.056131</ele>
        <time>2022-04-29T13:32:36.000Z</time>
      </trkpt>
      <trkpt lat="46.11851" lon="5.72791">
        <ele>1165.457946</ele>
        <time>2022-04-29T13:32:40.000Z</time>
      </trkpt>
      <trkpt lat="46.11842" lon="5.7279">
        <ele>1165.8671</ele>
        <time>2022-04-29T13:32:44.000Z</time>
      </trkpt>
      <trkpt lat="46.11831" lon="5.72781">
        <ele>1166.4655</ele>
        <time>2022-04-29T13:32:49.000Z</time>
      </trkpt>
      <trkpt lat="46.11822" lon="5.72775">
        <ele>1166.913092</ele>
        <time>2022-04-29T13:32:53.000Z</time>
      </trkpt>
      <trkpt lat="46.11813" lon="5.72768">
        <ele>1167.37684</ele>
        <time>2022-04-29T13:32:57.000Z</time>
      </trkpt>
      <trkpt lat="46.11805" lon="5.72759">
        <ele>1167.872855</ele>
        <time>2022-04-29T13:33:01.000Z</time>
      </trkpt>
      <trkpt lat="46.11794" lon="5.72751">
        <ele>1168.42104</ele>
        <time>2022-04-29T13:33:06.000Z</time>
      </trkpt>
      <trkpt lat="46.11785" lon="5.72744">
        <ele>1168.888981</ele>
        <time>2022-04-29T13:33:10.000Z</time>
      </trkpt>
      <trkpt lat="46.11777" lon="5.72737">
        <ele>1169.332712</ele>
        <time>2022-04-29T13:33:14.000Z</time>
      </trkpt>
      <trkpt lat="46.11771" lon="5.7273">
        <ele>1169.710142</ele>
        <time>2022-04-29T13:33:18.000Z</time>
      </trkpt>
      <trkpt lat="46.11761" lon="5.72718">
        <ele>1170.311098</ele>
        <time>2022-04-29T13:33:23.000Z</time>
      </trkpt>
      <trkpt lat="46.11754" lon="5.72709">
        <ele>1170.288853</ele>
        <time>2022-04-29T13:33:27.000Z</time>
      </trkpt>
      <trkpt lat="46.11748" lon="5.727">
        <ele>1170.245917</ele>
        <time>2022-04-29T13:33:31.000Z</time>
      </trkpt>
      <trkpt lat="46.11741" lon="5.72689">
        <ele>1170.195363</ele>
        <time>2022-04-29T13:33:35.000Z</time>
      </trkpt>
      <trkpt lat="46.11734" lon="5.72679">
        <ele>1170.147327</ele>
        <time>2022-04-29T13:33:39.000Z</time>
      </trkpt>
      <trkpt lat="46.11726" lon="5.72668">
        <ele>1170.090769</ele>
        <time>2022-04-29T13:33:44.000Z</time>
      </trkpt>
      <trkpt lat="46.11718" lon="5.72661">
        <ele>1170.047777</ele>
        <time>2022-04-29T13:33:48.000Z</time>
      </trkpt>
      <trkpt lat="46.1171" lon="5.72655">
        <ele>1170.00282</ele>
        <time>2022-04-29T13:33:52.000Z</time>
      </trkpt>
      <trkpt lat="46.11703" lon="5.72648">
        <ele>1169.957961</ele>
        <time>2022-04-29T13:33:56.000Z</time>
      </trkpt>
      <trkpt lat="46.11692" lon="5.72638">
        <ele>1169.897966</ele>
        <time>2022-04-29T13:34:01.000Z</time>
      </trkpt>
      <trkpt lat="46.11684" lon="5.72631">
        <ele>1169.85019</ele>
        <time>2022-04-29T13:34:05.000Z</time>
      </trkpt>
      <trkpt lat="46.11675" lon="5.72622">
        <ele>1169.796493</ele>
        <time>2022-04-29T13:34:09.000Z</time>
      </trkpt>
      <trkpt lat="46.11666" lon="5.72614">
        <ele>1169.74512</ele>
        <time>2022-04-29T13:34:13.000Z</time>
      </trkpt>
      <trkpt lat="46.11656" lon="5.72603">
        <ele>1169.682179</ele>
        <time>2022-04-29T13:34:18.000Z</time>
      </trkpt>
      <trkpt lat="46.11649" lon="5.7259">
        <ele>1169.624699</ele>
        <time>2022-04-29T13:34:22.000Z</time>
      </trkpt>
      <trkpt lat="46.1164" lon="5.72581">
        <ele>1169.571966</ele>
        <time>2022-04-29T13:34:26.000Z</time>
      </trkpt>
      <trkpt lat="46.11632" lon="5.7257">
        <ele>1169.516308</ele>
        <time>2022-04-29T13:34:31.000Z</time>
      </trkpt>
      <trkpt lat="46.11625" lon="5.7256">
        <ele>1169.467154</ele>
        <time>2022-04-29T13:34:35.000Z</time>
      </trkpt>
      <trkpt lat="46.11613" lon="5.72552">
        <ele>1169.1931</ele>
        <time>2022-04-29T13:34:40.000Z</time>
      </trkpt>
      <trkpt lat="46.11603" lon="5.72548">
        <ele>1168.92423</ele>
        <time>2022-04-29T13:34:44.000Z</time>
      </trkpt>
      <trkpt lat="46.11592" lon="5.72546">
        <ele>1168.642711</ele>
        <time>2022-04-29T13:34:48.000Z</time>
      </trkpt>
      <trkpt lat="46.1158" lon="5.72547">
        <ele>1168.34241</ele>
        <time>2022-04-29T13:34:52.000Z</time>
      </trkpt>
      <trkpt lat="46.11566" lon="5.72548">
        <ele>1167.968421</ele>
        <time>2022-04-29T13:34:57.000Z</time>
      </trkpt>
      <trkpt lat="46.11556" lon="5.72548">
        <ele>1167.702047</ele>
        <time>2022-04-29T13:35:01.000Z</time>
      </trkpt>
      <trkpt lat="46.11545" lon="5.72549">
        <ele>1167.427347</ele>
        <time>2022-04-29T13:35:05.000Z</time>
      </trkpt>
      <trkpt lat="46.11535" lon="5.72549">
        <ele>1167.144992</ele>
        <time>2022-04-29T13:35:09.000Z</time>
      </trkpt>
      <trkpt lat="46.11521" lon="5.72548">
        <ele>1166.796443</ele>
        <time>2022-04-29T13:35:14.000Z</time>
      </trkpt>
      <trkpt lat="46.11513" lon="5.72588">
        <ele>1164.87351</ele>
        <time>2022-04-29T13:35:30.000Z</time>
      </trkpt>
      <trkpt lat="46.11505" lon="5.72604">
        <ele>1164.772051</ele>
        <time>2022-04-29T13:36:48.000Z</time>
      </trkpt>
      <trkpt lat="46.115" lon="5.72617">
        <ele>1164.790002</ele>
        <time>2022-04-29T13:36:52.000Z</time>
      </trkpt>
      <trkpt lat="46.11494" lon="5.72631">
        <ele>1164.809098</ele>
        <time>2022-04-29T13:36:56.000Z</time>
      </trkpt>
      <trkpt lat="46.11488" lon="5.72645">
        <ele>1164.828466</ele>
        <time>2022-04-29T13:37:00.000Z</time>
      </trkpt>
      <trkpt lat="46.11482" lon="5.7266">
        <ele>1164.850804</ele>
        <time>2022-04-29T13:37:05.000Z</time>
      </trkpt>
      <trkpt lat="46.11475" lon="5.72671">
        <ele>1164.867729</ele>
        <time>2022-04-29T13:37:09.000Z</time>
      </trkpt>
      <trkpt lat="46.11469" lon="5.72682">
        <ele>1164.884462</ele>
        <time>2022-04-29T13:37:13.000Z</time>
      </trkpt>
      <trkpt lat="46.11463" lon="5.72693">
        <ele>1164.902224</ele>
        <time>2022-04-29T13:37:17.000Z</time>
      </trkpt>
      <trkpt lat="46.11454" lon="5.72706">
        <ele>1164.924004</ele>
        <time>2022-04-29T13:37:22.000Z</time>
      </trkpt>
      <trkpt lat="46.11447" lon="5.72718">
        <ele>1164.943372</ele>
        <time>2022-04-29T13:37:26.000Z</time>
      </trkpt>
      <trkpt lat="46.1144" lon="5.72728">
        <ele>1164.960171</ele>
        <time>2022-04-29T13:37:30.000Z</time>
      </trkpt>
      <trkpt lat="46.11432" lon="5.72736">
        <ele>1164.976886</ele>
        <time>2022-04-29T13:37:34.000Z</time>
      </trkpt>
      <trkpt lat="46.11425" lon="5.72746">
        <ele>1164.994348</ele>
        <time>2022-04-29T13:37:38.000Z</time>
      </trkpt>
      <trkpt lat="46.11416" lon="5.72756">
        <ele>1165.014967</ele>
        <time>2022-04-29T13:37:43.000Z</time>
      </trkpt>
      <trkpt lat="46.11408" lon="5.72766">
        <ele>1165.032109</ele>
        <time>2022-04-29T13:37:47.000Z</time>
      </trkpt>
      <trkpt lat="46.114" lon="5.72776">
        <ele>1165.05073</ele>
        <time>2022-04-29T13:37:51.000Z</time>
      </trkpt>
      <trkpt lat="46.11393" lon="5.72786">
        <ele>1165.068266</ele>
        <time>2022-04-29T13:37:55.000Z</time>
      </trkpt>
      <trkpt lat="46.11383" lon="5.72797">
        <ele>1165.216223</ele>
        <time>2022-04-29T13:38:00.000Z</time>
      </trkpt>
      <trkpt lat="46.11375" lon="5.72808">
        <ele>1165.347537</ele>
        <time>2022-04-29T13:38:04.000Z</time>
      </trkpt>
      <trkpt lat="46.11369" lon="5.72815">
        <ele>1165.438927</ele>
        <time>2022-04-29T13:38:07.000Z</time>
      </trkpt>
      <trkpt lat="46.11232" lon="5.73029">
        <ele>1179.7</ele>
      </trkpt>
      <trkpt lat="46.11221" lon="5.73052">
        <ele>1179.9</ele>
      </trkpt>
      <trkpt lat="46.11217" lon="5.73072">
        <ele>1179.8</ele>
      </trkpt>
      <trkpt lat="46.11152" lon="5.73366">
        <ele>1171.3</ele>
      </trkpt>
    </trkseg>
  </trk>
</gpx>